Time;durP1;ratioP1;P1;durP2;ratioP2;P2;SDS_P1;SDS_P2;PMS_P1;PMS_P2;Temp;Humidity;BMP_temperature;BMP_pressure;BME280_temperature;BME280_humidity;BME280_pressure;Samples;Min_cycle;Max_cycle;Signal;HPM_P1;HPM_P2
2023/08/16 00:01:46;;;;;;;21.13;14.15;;;;;;;18.62;95.70;101779.09;5112612;28;20065;-66
2023/08/16 00:04:12;;;;;;;20.60;13.98;;;;;;;18.62;95.76;101776.28;5112435;28;20054;-66
2023/08/16 00:06:41;;;;;;;21.27;14.38;;;;;;;18.50;96.46;101775.06;5112033;28;20027;-67
2023/08/16 00:09:07;;;;;;;20.85;14.00;;;;;;;18.52;96.58;101775.53;5112420;28;20023;-66
2023/08/16 00:11:32;;;;;;;20.63;14.52;;;;;;;18.47;97.12;101770.13;5112507;28;20034;-66
2023/08/16 00:13:57;;;;;;;20.58;14.63;;;;;;;18.49;96.64;101772.59;5112313;28;20024;-66
2023/08/16 00:16:22;;;;;;;20.80;14.63;;;;;;;18.46;96.55;101771.28;5112207;27;20572;-66
2023/08/16 00:18:48;;;;;;;19.92;13.95;;;;;;;18.47;96.47;101769.28;5112162;28;20547;-67
2023/08/16 00:21:13;;;;;;;21.15;14.70;;;;;;;18.46;96.62;101782.50;5111888;28;20028;-66
2023/08/16 00:23:38;;;;;;;20.70;15.18;;;;;;;18.42;97.21;101778.72;5112180;28;20031;-66
2023/08/16 00:26:04;;;;;;;20.73;14.65;;;;;;;18.40;97.35;101781.84;5112239;28;20133;-66
2023/08/16 00:28:29;;;;;;;21.73;14.52;;;;;;;18.38;97.14;101777.75;5112122;28;20032;-66
2023/08/16 00:30:55;;;;;;;21.08;14.55;;;;;;;18.46;97.27;101790.09;5112141;28;20050;-66
2023/08/16 00:33:21;;;;;;;22.33;15.30;;;;;;;18.53;96.95;101787.56;5112221;28;20031;-66
2023/08/16 00:35:47;;;;;;;21.48;14.35;;;;;;;18.56;96.41;101795.31;5112308;28;20387;-66
2023/08/16 00:38:12;;;;;;;22.65;14.57;;;;;;;18.54;96.60;101792.03;5111920;28;20024;-66
2023/08/16 00:40:37;;;;;;;24.10;14.63;;;;;;;18.51;97.00;101787.09;5111909;28;20376;-66
2023/08/16 00:43:03;;;;;;;20.98;14.32;;;;;;;18.52;97.17;101781.13;5110401;28;20031;-66
2023/08/16 00:45:29;;;;;;;22.30;15.18;;;;;;;18.47;96.73;101794.50;5111819;28;20482;-66
2023/08/16 00:47:54;;;;;;;21.15;15.35;;;;;;;18.47;97.10;101786.94;5111682;28;20046;-66
2023/08/16 00:50:23;;;;;;;20.90;15.15;;;;;;;18.37;97.51;101788.13;5111745;28;20035;-66
2023/08/16 00:52:49;;;;;;;21.27;14.98;;;;;;;18.33;97.58;101789.13;5111812;28;20020;-66
2023/08/16 00:55:15;;;;;;;21.70;15.25;;;;;;;18.30;98.41;101801.84;5111610;28;20392;-66
2023/08/16 00:57:40;;;;;;;21.23;14.93;;;;;;;18.34;98.74;101800.03;5111655;28;20035;-66
2023/08/16 01:00:06;;;;;;;20.50;14.32;;;;;;;18.33;98.84;101803.97;5111627;28;20114;-66
2023/08/16 01:02:32;;;;;;;21.05;14.93;;;;;;;18.31;99.33;101803.50;5111377;28;20111;-66
2023/08/16 01:04:57;;;;;;;21.02;14.77;;;;;;;18.28;99.36;101801.34;5111949;28;20421;-66
2023/08/16 01:07:22;;;;;;;20.80;14.68;;;;;;;18.20;100.00;101799.41;5111643;28;20464;-66
2023/08/16 01:09:48;;;;;;;21.33;15.63;;;;;;;18.18;100.00;101796.16;5111553;28;20036;-66
2023/08/16 01:12:31;;;;;;;20.65;14.80;;;;;;;18.25;99.47;101802.03;5111408;28;20340;-66
2023/08/16 01:15:08;;;;;;;20.48;15.05;;;;;;;18.21;99.91;101812.25;5111539;28;20031;-66
2023/08/16 01:17:35;;;;;;;21.95;15.07;;;;;;;18.22;100.00;101809.13;5111316;28;20502;-66
2023/08/16 01:20:03;;;;;;;22.63;14.95;;;;;;;18.21;100.00;101815.06;5113407;28;20027;-66
2023/08/16 01:22:54;;;;;;;21.73;15.05;;;;;;;18.20;100.00;101811.44;5116049;27;20028;-66
2023/08/16 01:26:01;;;;;;;22.73;15.63;;;;;;;18.17;99.74;101816.91;5115678;28;20038;-66
2023/08/16 01:28:29;;;;;;;22.52;15.60;;;;;;;18.03;100.00;101828.31;5115724;28;20031;-66
2023/08/16 01:31:03;;;;;;;22.17;15.98;;;;;;;17.92;100.00;101822.19;5115448;28;20499;-67
2023/08/16 01:33:28;;;;;;;20.90;16.20;;;;;;;17.86;100.00;101832.75;5115520;28;20104;-66
2023/08/16 01:35:54;;;;;;;21.63;16.00;;;;;;;17.78;100.00;101828.81;5115408;28;20118;-66
2023/08/16 01:38:19;;;;;;;20.90;15.80;;;;;;;17.76;100.00;101822.72;5115298;28;20032;-66
2023/08/16 01:40:54;;;;;;;22.48;16.40;;;;;;;17.78;100.00;101820.44;5115357;28;20024;-66
2023/08/16 01:43:20;;;;;;;21.38;15.60;;;;;;;17.81;100.00;101827.31;5115346;28;20072;-66
2023/08/16 01:45:49;;;;;;;21.85;15.88;;;;;;;17.78;100.00;101827.97;5115391;28;20044;-66
2023/08/16 01:48:15;;;;;;;21.83;15.73;;;;;;;17.83;100.00;101835.38;5115324;28;20035;-66
2023/08/16 01:50:41;;;;;;;20.30;15.88;;;;;;;17.81;100.00;101834.88;5115154;28;20075;-66
2023/08/16 01:53:07;;;;;;;19.92;15.23;;;;;;;17.83;100.00;101839.03;5115348;28;20110;-66
2023/08/16 01:55:32;;;;;;;23.05;16.05;;;;;;;17.78;100.00;101833.56;5115058;28;20015;-66
2023/08/16 01:57:57;;;;;;;23.55;15.38;;;;;;;17.77;100.00;101824.38;5115006;28;20019;-67
2023/08/16 02:00:23;;;;;;;21.08;15.60;;;;;;;17.78;100.00;101823.22;5114983;28;20388;-66
2023/08/16 02:02:48;;;;;;;22.77;15.45;;;;;;;17.78;100.00;101827.97;5114755;28;20546;-66
2023/08/16 02:05:14;;;;;;;21.85;14.85;;;;;;;17.80;100.00;101834.06;5114755;28;20102;-66
2023/08/16 02:07:39;;;;;;;22.23;15.50;;;;;;;17.80;100.00;101825.69;5114708;28;20745;-66
2023/08/16 02:10:05;;;;;;;22.67;16.52;;;;;;;17.73;100.00;101828.97;5113316;28;20124;-66
2023/08/16 02:12:30;;;;;;;23.58;16.48;;;;;;;17.61;100.00;101828.84;5114656;28;20032;-66
2023/08/16 02:14:55;;;;;;;23.20;16.08;;;;;;;17.61;100.00;101837.25;5114682;28;20042;-66
2023/08/16 02:17:21;;;;;;;23.40;17.08;;;;;;;17.57;100.00;101844.63;5114396;28;20034;-66
2023/08/16 02:19:47;;;;;;;22.13;16.35;;;;;;;17.51;100.00;101843.16;5114465;28;20024;-66
2023/08/16 02:22:12;;;;;;;21.77;16.95;;;;;;;17.46;100.00;101833.78;5113008;28;20057;-66
2023/08/16 02:24:37;;;;;;;22.00;15.90;;;;;;;17.48;100.00;101841.03;5114372;28;20020;-67
2023/08/16 02:27:03;;;;;;;22.77;17.08;;;;;;;17.46;100.00;101833.78;5114356;28;20032;-66
2023/08/16 02:29:28;;;;;;;22.98;15.77;;;;;;;17.44;100.00;101838.06;5113874;28;20378;-66
2023/08/16 02:31:53;;;;;;;22.00;15.80;;;;;;;17.38;100.00;101837.41;5114338;28;20049;-66
2023/08/16 02:34:19;;;;;;;24.75;16.17;;;;;;;17.44;100.00;101826.88;5114171;28;20050;-66
2023/08/16 02:36:44;;;;;;;21.58;15.73;;;;;;;17.38;100.00;101831.00;5114033;28;20024;-66
2023/08/16 02:39:10;;;;;;;19.95;14.85;;;;;;;17.41;100.00;101842.34;5114240;28;20031;-66
2023/08/16 02:41:35;;;;;;;22.33;16.58;;;;;;;17.44;100.00;101836.06;5114091;28;20526;-66
2023/08/16 02:44:01;;;;;;;22.05;15.68;;;;;;;17.38;100.00;101842.19;5114120;27;20051;-66
2023/08/16 02:46:26;;;;;;;21.30;16.10;;;;;;;17.31;100.00;101846.28;5114013;28;20110;-66
2023/08/16 02:48:51;;;;;;;24.55;17.05;;;;;;;17.30;100.00;101841.81;5113878;28;20792;-66
2023/08/16 02:51:17;;;;;;;22.38;16.17;;;;;;;17.27;100.00;101836.91;5112665;28;20111;-66
2023/08/16 02:53:42;;;;;;;23.08;16.35;;;;;;;17.27;100.00;101830.47;5112307;28;20024;-66
2023/08/16 02:56:07;;;;;;;22.83;15.85;;;;;;;17.19;100.00;101825.72;5113728;28;20050;-66
2023/08/16 02:58:33;;;;;;;21.38;15.82;;;;;;;17.21;100.00;101821.44;5113703;28;20034;-66
2023/08/16 03:00:58;;;;;;;22.38;16.83;;;;;;;17.15;100.00;101811.56;5113685;28;20102;-66
2023/08/16 03:03:23;;;;;;;22.02;16.17;;;;;;;17.10;100.00;101811.72;5113535;28;20473;-67
2023/08/16 03:05:49;;;;;;;22.23;15.18;;;;;;;17.11;100.00;101822.59;5113576;28;20046;-66
2023/08/16 03:08:14;;;;;;;22.13;15.05;;;;;;;17.08;100.00;101819.63;5113609;28;20463;-66
2023/08/16 03:10:39;;;;;;;21.20;15.25;;;;;;;17.11;100.00;101824.53;5113617;27;20093;-66
2023/08/16 03:13:05;;;;;;;22.20;15.77;;;;;;;17.11;100.00;101819.78;5112107;28;20035;-66
2023/08/16 03:15:30;;;;;;;22.58;15.93;;;;;;;17.10;100.00;101825.69;5113459;28;20027;-66
2023/08/16 03:17:56;;;;;;;22.50;16.20;;;;;;;17.09;100.00;101835.25;5113268;28;20034;-66
2023/08/16 03:20:21;;;;;;;20.88;15.20;;;;;;;17.07;100.00;101832.75;5113370;28;20043;-66
2023/08/16 03:22:47;;;;;;;21.50;15.70;;;;;;;17.04;100.00;101815.81;5113333;28;20047;-66
2023/08/16 03:25:12;;;;;;;21.48;15.10;;;;;;;17.07;100.00;101823.56;5113205;28;20368;-66
2023/08/16 03:27:38;;;;;;;21.38;14.77;;;;;;;17.09;100.00;101835.25;5113240;28;20024;-66
2023/08/16 03:30:04;;;;;;;22.63;15.65;;;;;;;17.08;100.00;101842.00;5113009;28;20433;-66
2023/08/16 03:32:29;;;;;;;22.90;15.38;;;;;;;17.04;100.00;101832.59;5113131;28;20027;-67
2023/08/16 03:34:54;;;;;;;21.65;14.68;;;;;;;17.02;100.00;101832.94;5113140;28;20535;-66
2023/08/16 03:37:20;;;;;;;21.52;15.75;;;;;;;17.00;100.00;101838.00;5111598;28;20439;-66
2023/08/16 03:39:45;;;;;;;20.63;15.43;;;;;;;17.02;100.00;101843.28;5112968;28;20038;-66
2023/08/16 03:42:10;;;;;;;21.20;16.45;;;;;;;17.02;100.00;101846.91;5112233;28;20072;-66
2023/08/16 03:44:35;;;;;;;21.45;15.93;;;;;;;17.02;100.00;101841.31;5112843;28;20028;-66
2023/08/16 03:47:01;;;;;;;21.55;15.07;;;;;;;17.03;100.00;101837.38;5112646;28;20119;-66
2023/08/16 03:49:26;;;;;;;21.20;15.85;;;;;;;17.04;100.00;101838.19;5112694;28;20030;-66
2023/08/16 03:51:51;;;;;;;21.75;15.57;;;;;;;17.07;100.00;101846.72;5112594;28;20577;-66
2023/08/16 03:54:17;;;;;;;21.10;15.30;;;;;;;17.07;100.00;101852.31;5112670;28;20501;-66
2023/08/16 03:56:42;;;;;;;21.15;15.98;;;;;;;17.02;100.00;101851.66;5112481;28;20027;-66
2023/08/16 03:59:07;;;;;;;22.10;15.52;;;;;;;16.95;100.00;101854.97;5112575;28;20038;-66
2023/08/16 04:01:33;;;;;;;22.40;15.23;;;;;;;16.97;100.00;101861.84;5112465;28;20391;-66
2023/08/16 04:03:59;;;;;;;20.80;14.50;;;;;;;16.89;100.00;101853.41;5112453;28;20070;-66
2023/08/16 04:06:24;;;;;;;23.58;16.52;;;;;;;16.90;100.00;101855.91;5112405;27;20020;-66
2023/08/16 04:08:49;;;;;;;21.45;15.57;;;;;;;16.90;100.00;101852.25;5112331;28;20475;-66
2023/08/16 04:11:15;;;;;;;21.77;16.08;;;;;;;16.84;100.00;101859.97;5112406;28;20027;-66
2023/08/16 04:13:40;;;;;;;20.88;15.55;;;;;;;16.83;100.00;101853.56;5112235;28;20034;-66
2023/08/16 04:16:05;;;;;;;21.27;14.88;;;;;;;16.83;100.00;101849.94;5112124;27;20030;-66
2023/08/16 04:18:31;;;;;;;21.90;15.80;;;;;;;16.76;100.00;101853.22;5111956;27;20488;-67
2023/08/16 04:20:56;;;;;;;20.73;15.93;;;;;;;16.78;100.00;101861.28;5112127;28;20385;-66
2023/08/16 04:23:23;;;;;;;22.60;16.17;;;;;;;16.75;100.00;101859.13;5112003;28;20043;-66
2023/08/16 04:25:49;;;;;;;21.10;16.38;;;;;;;16.73;100.00;101853.88;5111829;28;20563;-66
2023/08/16 04:28:14;;;;;;;20.65;15.52;;;;;;;16.76;100.00;101861.63;5111766;28;20059;-66
2023/08/16 04:30:40;;;;;;;21.15;16.25;;;;;;;16.74;100.00;101868.66;5111492;28;20047;-66
2023/08/16 04:33:05;;;;;;;22.25;15.95;;;;;;;16.76;100.00;101870.00;5111843;28;20051;-66
2023/08/16 04:35:30;;;;;;;21.77;15.85;;;;;;;16.72;100.00;101876.56;5111692;28;20028;-66
2023/08/16 04:37:55;;;;;;;21.25;15.85;;;;;;;16.72;100.00;101871.78;5111825;28;20055;-67
2023/08/16 04:40:21;;;;;;;23.13;16.00;;;;;;;16.66;100.00;101873.88;5111788;28;20023;-66
2023/08/16 04:42:46;;;;;;;20.88;14.82;;;;;;;16.62;100.00;101878.50;5111882;28;20020;-66
2023/08/16 04:45:12;;;;;;;20.13;14.98;;;;;;;16.57;100.00;101884.19;5112008;28;20149;-66
2023/08/16 04:47:37;;;;;;;20.48;15.35;;;;;;;16.50;100.00;101875.47;5111912;28;20031;-66
2023/08/16 04:50:06;;;;;;;21.10;14.57;;;;;;;16.52;100.00;101879.59;5111888;28;20062;-66
2023/08/16 04:52:32;;;;;;;21.30;14.52;;;;;;;16.47;100.00;101882.53;5111969;28;20035;-66
2023/08/16 04:54:58;;;;;;;21.05;14.60;;;;;;;16.43;100.00;101878.72;5111885;28;20484;-66
2023/08/16 04:57:24;;;;;;;20.95;13.93;;;;;;;16.46;100.00;101874.47;5111630;28;20028;-66
2023/08/16 04:59:50;;;;;;;22.35;14.38;;;;;;;16.41;100.00;101877.41;5111621;28;20027;-66
2023/08/16 05:02:15;;;;;;;21.05;13.90;;;;;;;16.40;100.00;101873.75;5111559;28;20034;-67
2023/08/16 05:04:40;;;;;;;21.08;13.30;;;;;;;16.40;100.00;101876.56;5111519;28;20055;-66
2023/08/16 05:07:06;;;;;;;20.83;13.95;;;;;;;16.46;100.00;101880.03;5111420;28;20120;-66
2023/08/16 05:09:31;;;;;;;21.17;14.60;;;;;;;16.46;100.00;101874.47;5110355;28;20039;-67
2023/08/16 05:11:56;;;;;;;20.40;14.57;;;;;;;16.45;100.00;101890.41;5111651;28;20386;-67
2023/08/16 05:14:22;;;;;;;21.88;14.00;;;;;;;16.38;100.00;101888.06;5111493;28;20020;-67
2023/08/16 05:16:47;;;;;;;20.73;14.38;;;;;;;16.32;100.00;101892.16;5111294;28;20027;-67
2023/08/16 05:19:13;;;;;;;22.45;14.63;;;;;;;16.31;100.00;101881.28;5111519;28;20031;-67
2023/08/16 05:21:38;;;;;;;21.63;14.40;;;;;;;16.37;100.00;101883.63;5111372;28;20035;-67
2023/08/16 05:24:04;;;;;;;20.20;14.25;;;;;;;16.41;100.00;101894.97;5111367;28;20019;-67
2023/08/16 05:26:29;;;;;;;21.27;14.23;;;;;;;16.49;100.00;101890.59;5111386;28;20055;-67
2023/08/16 05:28:54;;;;;;;21.02;14.25;;;;;;;16.53;100.00;101889.63;5111205;28;20387;-67
2023/08/16 05:31:19;;;;;;;22.70;14.40;;;;;;;16.58;100.00;101891.44;5110055;28;20056;-67
2023/08/16 05:33:45;;;;;;;21.15;14.15;;;;;;;16.62;100.00;101892.47;5109805;28;20122;-67
2023/08/16 05:36:10;;;;;;;20.38;14.43;;;;;;;16.64;100.00;101906.91;5111232;28;20055;-67
2023/08/16 05:38:36;;;;;;;20.23;14.63;;;;;;;16.68;100.00;101895.91;5111054;28;20016;-67
2023/08/16 05:41:04;;;;;;;20.58;13.88;;;;;;;16.77;100.00;101904.34;5111069;28;20096;-67
2023/08/16 05:43:31;;;;;;;19.55;14.13;;;;;;;16.77;100.00;101921.91;5111005;28;20120;-67
2023/08/16 05:45:56;;;;;;;23.30;14.60;;;;;;;16.80;100.00;101921.28;5111146;28;20024;-67
2023/08/16 05:48:21;;;;;;;20.00;13.45;;;;;;;16.82;100.00;101919.00;5109676;28;20024;-67
2023/08/16 05:50:47;;;;;;;19.92;13.68;;;;;;;16.81;100.00;101917.34;5111139;28;20024;-67
2023/08/16 05:53:12;;;;;;;20.33;13.50;;;;;;;16.84;100.00;101918.66;5111192;28;20024;-67
2023/08/16 05:55:37;;;;;;;19.63;13.68;;;;;;;16.87;100.00;101919.97;5111063;28;20030;-67
2023/08/16 05:58:04;;;;;;;20.00;13.27;;;;;;;16.90;100.00;101913.75;5109512;28;20539;-67
2023/08/16 06:00:29;;;;;;;19.40;13.15;;;;;;;16.97;100.00;101905.75;5111174;28;20020;-67
2023/08/16 06:02:55;;;;;;;19.80;13.13;;;;;;;17.01;100.00;101912.34;5110999;28;20368;-67
2023/08/16 06:05:20;;;;;;;20.00;12.73;;;;;;;17.04;100.00;101913.66;5113000;28;20108;-67
2023/08/16 06:07:45;;;;;;;21.30;12.60;;;;;;;17.05;100.00;101915.31;5114735;28;20114;-67
2023/08/16 06:10:11;;;;;;;20.13;12.82;;;;;;;17.06;100.00;101917.78;5114864;28;20240;-67
2023/08/16 06:12:36;;;;;;;19.30;12.88;;;;;;;17.12;100.00;101929.63;5114531;28;20032;-67
2023/08/16 06:15:02;;;;;;;19.42;12.50;;;;;;;17.20;100.00;101928.00;5114528;28;20030;-67
2023/08/16 06:17:28;;;;;;;19.35;12.65;;;;;;;17.29;100.00;101931.66;5114636;28;20035;-67
2023/08/16 06:19:53;;;;;;;18.98;12.13;;;;;;;17.39;100.00;101936.09;5114549;28;20111;-67
2023/08/16 06:22:19;;;;;;;19.75;12.60;;;;;;;17.43;100.00;101943.50;5113039;28;20516;-67
2023/08/16 06:24:44;;;;;;;21.88;12.52;;;;;;;17.49;100.00;101941.38;5114491;28;20039;-67
2023/08/16 06:27:10;;;;;;;20.27;12.90;;;;;;;17.52;100.00;101937.94;5114369;28;20034;-67
2023/08/16 06:29:35;;;;;;;21.70;12.98;;;;;;;17.50;100.00;101936.63;5114019;28;20058;-67
2023/08/16 06:32:01;;;;;;;21.38;12.77;;;;;;;17.53;100.00;101934.00;5114356;28;20031;-67
2023/08/16 06:34:27;;;;;;;19.98;12.75;;;;;;;17.57;100.00;101920.97;5114191;28;20031;-67
2023/08/16 06:36:53;;;;;;;20.17;13.02;;;;;;;17.68;100.00;101913.09;5112659;28;20130;-67
2023/08/16 06:39:18;;;;;;;19.95;13.30;;;;;;;17.67;100.00;101917.06;5114127;28;20111;-67
2023/08/16 06:41:44;;;;;;;19.95;13.07;;;;;;;17.69;100.00;101919.50;5114159;28;20467;-67
2023/08/16 06:44:10;;;;;;;21.00;13.13;;;;;;;17.72;100.00;101913.28;5113978;28;20110;-66
2023/08/16 06:46:35;;;;;;;19.95;12.90;;;;;;;17.77;100.00;101918.69;5114006;28;20372;-67
2023/08/16 06:49:01;;;;;;;19.52;12.73;;;;;;;17.93;100.00;101924.63;5113761;28;20035;-66
2023/08/16 06:51:26;;;;;;;20.58;13.18;;;;;;;18.02;99.03;101921.84;5113830;28;20165;-67
2023/08/16 06:53:52;;;;;;;20.50;13.00;;;;;;;18.21;99.31;101929.88;5113746;28;20106;-67
2023/08/16 06:56:17;;;;;;;19.42;12.20;;;;;;;18.35;96.83;101929.69;5113799;27;20044;-67
2023/08/16 06:58:43;;;;;;;19.88;12.57;;;;;;;18.32;95.92;101925.56;5113471;28;20114;-67
2023/08/16 07:01:08;;;;;;;19.67;12.18;;;;;;;18.21;94.80;101925.13;5113779;28;20065;-67
2023/08/16 07:03:35;;;;;;;18.85;12.18;;;;;;;18.23;95.44;101927.56;5113551;28;20067;-67
2023/08/16 07:06:00;;;;;;;19.23;12.20;;;;;;;18.12;95.14;101924.31;5113565;28;20046;-67
2023/08/16 07:08:25;;;;;;;18.38;12.15;;;;;;;18.11;95.44;101936.66;5113481;28;20024;-67
2023/08/16 07:10:52;;;;;;;18.17;11.98;;;;;;;18.14;94.75;101937.97;5113429;28;20532;-67
2023/08/16 07:13:17;;;;;;;19.77;12.35;;;;;;;18.14;95.68;101935.97;5111788;28;20110;-67
2023/08/16 07:15:42;;;;;;;18.77;11.80;;;;;;;18.21;95.93;101936.31;5113017;28;20070;-68
2023/08/16 07:18:08;;;;;;;18.67;11.77;;;;;;;18.33;95.23;101940.41;5112728;28;20027;-67
2023/08/16 07:20:33;;;;;;;18.48;11.90;;;;;;;18.43;94.53;101942.03;5113178;28;20035;-67
2023/08/16 07:23:00;;;;;;;20.10;11.95;;;;;;;18.53;93.23;101944.47;5113140;28;20043;-67
2023/08/16 07:25:26;;;;;;;18.08;11.70;;;;;;;18.62;93.48;101931.28;5113312;28;20023;-67
2023/08/16 07:27:52;;;;;;;18.65;11.88;;;;;;;18.66;91.71;101940.63;5113144;28;20462;-67
2023/08/16 07:30:17;;;;;;;20.35;12.32;;;;;;;18.65;92.67;101938.19;5112884;28;20081;-67
2023/08/16 07:32:43;;;;;;;19.15;12.75;;;;;;;18.74;91.70;101944.56;5113195;28;20024;-67
2023/08/16 07:35:09;;;;;;;17.90;12.10;;;;;;;18.87;92.41;101951.09;5112921;28;20031;-67
2023/08/16 07:37:35;;;;;;;19.80;12.75;;;;;;;19.00;91.89;101949.25;5112905;28;20020;-67
2023/08/16 07:40:03;;;;;;;18.08;11.98;;;;;;;19.14;90.87;101946.22;5112866;28;20590;-67
2023/08/16 07:42:28;;;;;;;20.02;12.20;;;;;;;19.15;89.45;101945.91;5111384;28;20016;-67
2023/08/16 07:44:54;;;;;;;21.38;12.18;;;;;;;19.16;89.44;101938.31;5112851;28;20016;-67
2023/08/16 07:47:19;;;;;;;19.15;12.13;;;;;;;19.14;89.22;101938.66;5112804;28;20043;-67
2023/08/16 07:49:44;;;;;;;20.55;12.18;;;;;;;19.19;87.70;101940.44;5112602;28;20108;-68
2023/08/16 07:52:10;;;;;;;20.27;11.60;;;;;;;19.27;88.15;101945.16;5112964;28;20030;-67
2023/08/16 07:54:35;;;;;;;18.50;11.50;;;;;;;19.31;85.48;101942.50;5112788;28;20023;-67
2023/08/16 07:57:00;;;;;;;17.42;11.25;;;;;;;19.25;84.91;101953.09;5112503;28;20085;-68
2023/08/16 07:59:26;;;;;;;16.80;10.73;;;;;;;19.32;85.39;101955.38;5112495;28;20107;-67
2023/08/16 08:01:52;;;;;;;17.55;11.02;;;;;;;19.49;84.86;101960.88;5112450;28;20107;-67
2023/08/16 08:04:18;;;;;;;15.93;10.25;;;;;;;19.68;83.96;101961.59;5112503;28;20037;-67
2023/08/16 08:06:44;;;;;;;18.00;10.70;;;;;;;19.62;80.39;101963.75;5112424;28;20066;-68
2023/08/16 08:09:09;;;;;;;15.23;10.10;;;;;;;19.64;80.52;101961.44;5112405;28;20377;-67
2023/08/16 08:11:36;;;;;;;15.43;10.43;;;;;;;19.80;80.69;101961.63;5112313;28;20471;-67
2023/08/16 08:14:02;;;;;;;16.40;9.98;;;;;;;19.87;80.33;101969.53;5112303;28;20093;-68
2023/08/16 08:16:27;;;;;;;17.38;10.32;;;;;;;19.97;81.18;101962.69;5112445;28;20050;-67
2023/08/16 08:18:53;;;;;;;14.90;10.27;;;;;;;20.09;81.30;101965.53;5110669;28;20023;-67
2023/08/16 08:21:18;;;;;;;15.95;10.57;;;;;;;20.05;81.28;101973.84;5112258;28;20039;-68
2023/08/16 08:23:43;;;;;;;15.95;10.35;;;;;;;20.02;81.32;101962.47;5112044;28;20027;-68
2023/08/16 08:26:10;;;;;;;17.85;10.75;;;;;;;19.96;81.96;101964.66;5112188;28;20024;-68
2023/08/16 08:28:36;;;;;;;18.77;11.38;;;;;;;19.76;83.50;101978.34;5111405;28;20031;-68
2023/08/16 08:31:05;;;;;;;17.80;10.40;;;;;;;19.93;83.56;101979.41;5111529;28;20047;-67
2023/08/16 08:33:30;;;;;;;19.60;10.98;;;;;;;20.04;83.33;101966.56;5111717;28;20035;-68
2023/08/16 08:35:56;;;;;;;18.40;11.23;;;;;;;20.18;82.99;101976.72;5111855;28;20134;-70
2023/08/16 08:38:23;;;;;;;20.55;11.05;;;;;;;20.31;83.75;101980.38;5112373;28;20019;-68
2023/08/16 08:40:56;;;;;;;21.80;11.35;;;;;;;20.49;82.45;101973.41;5112494;28;20083;-68
2023/08/16 08:43:27;;;;;;;18.92;11.50;;;;;;;20.38;82.56;101973.06;5112291;28;20096;-68
2023/08/16 08:45:56;;;;;;;19.45;11.77;;;;;;;20.40;82.17;101979.13;5112183;28;20440;-68
2023/08/16 08:48:23;;;;;;;20.50;11.45;;;;;;;20.48;81.90;101970.97;5111914;28;20117;-67
2023/08/16 08:50:50;;;;;;;17.70;11.00;;;;;;;20.68;82.19;101978.50;5111335;28;20020;-68
2023/08/16 08:53:15;;;;;;;16.92;11.00;;;;;;;20.77;81.47;101974.81;5110806;28;20035;-68
2023/08/16 08:55:45;;;;;;;18.27;11.35;;;;;;;20.70;82.38;101969.72;5110717;28;20026;-67
2023/08/16 08:58:11;;;;;;;18.50;12.00;;;;;;;20.78;81.31;101974.44;5111070;28;20041;-68
2023/08/16 09:00:39;;;;;;;18.63;11.85;;;;;;;20.76;81.07;101976.78;5111010;28;20110;-68
2023/08/16 09:03:07;;;;;;;18.90;11.25;;;;;;;20.96;81.43;101983.50;5111155;28;20034;-68
2023/08/16 09:05:33;;;;;;;18.23;11.38;;;;;;;21.10;79.69;101988.78;5111432;28;20119;-68
2023/08/16 09:08:00;;;;;;;19.33;11.55;;;;;;;21.28;79.03;101983.72;5111851;28;20028;-68
2023/08/16 09:10:26;;;;;;;19.20;10.80;;;;;;;21.34;77.64;101987.97;5110516;28;20482;-68
2023/08/16 09:12:53;;;;;;;17.98;11.00;;;;;;;21.12;78.77;101977.19;5111864;28;20035;-66
2023/08/16 09:15:18;;;;;;;18.42;11.07;;;;;;;21.09;78.60;101980.69;5111831;28;20452;-68
2023/08/16 09:17:45;;;;;;;19.08;11.20;;;;;;;21.26;79.28;101974.81;5111689;28;20110;-67
2023/08/16 09:20:11;;;;;;;17.70;10.90;;;;;;;21.31;78.22;101974.59;5111625;28;20169;-67
2023/08/16 09:22:37;;;;;;;20.25;11.48;;;;;;;21.41;79.12;101972.47;5111744;28;20032;-68
2023/08/16 09:25:03;;;;;;;20.98;11.90;;;;;;;21.47;77.97;101974.69;5111781;28;20039;-67
2023/08/16 09:27:31;;;;;;;20.75;11.63;;;;;;;21.46;75.93;101978.69;5111616;28;20032;-67
2023/08/16 09:29:56;;;;;;;17.92;11.68;;;;;;;21.93;76.73;101976.50;5111490;28;20043;-67
2023/08/16 09:32:22;;;;;;;18.27;11.00;;;;;;;22.35;73.86;101984.53;5111786;28;20230;-67
2023/08/16 09:34:48;;;;;;;19.30;11.20;;;;;;;22.66;73.13;101970.91;5111677;28;20126;-67
2023/08/16 09:37:15;;;;;;;17.55;10.68;;;;;;;22.85;70.35;101972.97;5111411;28;20027;-67
2023/08/16 09:39:40;;;;;;;18.45;11.05;;;;;;;23.13;68.47;101980.53;5112835;28;20126;-67
2023/08/16 09:42:10;;;;;;;15.98;10.23;;;;;;;23.32;69.21;101983.44;5115786;28;20108;-67
2023/08/16 09:44:37;;;;;;;18.17;10.95;;;;;;;23.31;67.26;101984.63;5115578;28;20063;-67
2023/08/16 09:47:15;;;;;;;19.70;10.55;;;;;;;23.28;68.35;101982.56;5115444;28;20042;-67
2023/08/16 09:49:43;;;;;;;17.75;10.32;;;;;;;23.14;66.80;101984.97;5115406;28;20375;-68
2023/08/16 09:52:11;;;;;;;17.92;10.52;;;;;;;23.00;67.41;101979.81;5115593;28;20060;-68
2023/08/16 09:54:37;;;;;;;19.30;10.63;;;;;;;23.06;67.29;101986.81;5115611;28;20031;-67
2023/08/16 09:57:04;;;;;;;17.27;10.07;;;;;;;23.09;67.65;101974.78;5115252;28;20208;-67
2023/08/16 09:59:30;;;;;;;17.70;10.55;;;;;;;23.10;67.66;101976.44;5115248;28;20035;-66
2023/08/16 10:01:57;;;;;;;18.00;10.93;;;;;;;23.20;67.37;101978.72;5115472;28;20460;-67
2023/08/16 10:04:24;;;;;;;17.52;10.20;;;;;;;23.16;64.61;101976.97;5115079;28;20028;-67
2023/08/16 10:06:49;;;;;;;17.55;10.27;;;;;;;23.12;66.14;101981.69;5115215;28;20028;-67
2023/08/16 10:09:16;;;;;;;16.23;10.57;;;;;;;23.09;66.58;101979.63;5113444;28;20108;-67
2023/08/16 10:11:43;;;;;;;18.20;10.55;;;;;;;22.93;66.93;101976.81;5113353;28;20020;-67
2023/08/16 10:14:09;;;;;;;19.33;11.10;;;;;;;22.85;67.30;101976.63;5114762;27;20028;-67
2023/08/16 10:16:38;;;;;;;17.02;10.77;;;;;;;22.73;67.37;101971.06;5114788;28;20373;-67
2023/08/16 10:19:04;;;;;;;17.00;10.30;;;;;;;;;;5114350;28;20077;-67
2023/08/16 10:21:33;;;;;;;17.83;10.70;;;;;;;22.78;69.32;101976.44;5114553;28;20024;-67
2023/08/16 10:24:00;;;;;;;17.23;10.48;;;;;;;23.06;69.99;101965.06;5114625;28;20047;-67
2023/08/16 10:26:30;;;;;;;18.80;10.93;;;;;;;23.34;69.78;101974.59;5114713;28;20133;-67
2023/08/16 10:28:59;;;;;;;19.10;11.63;;;;;;;23.37;67.87;101968.22;5114350;28;20055;-66
2023/08/16 10:31:30;;;;;;;18.70;11.05;;;;;;;23.36;68.94;101969.41;5114293;28;20047;-67
2023/08/16 10:33:58;;;;;;;18.58;11.68;;;;;;;23.15;69.91;101967.69;5114612;28;20060;-67
2023/08/16 10:36:24;;;;;;;17.55;11.10;;;;;;;23.53;69.99;101971.00;5114341;27;20027;-68
2023/08/16 10:38:55;;;;;;;19.23;11.27;;;;;;;23.52;70.21;101969.38;5112453;28;20031;-66
2023/08/16 10:41:21;;;;;;;20.38;11.50;;;;;;;23.53;69.92;101969.00;5114213;28;20023;-66
2023/08/16 10:43:48;;;;;;;19.73;11.55;;;;;;;23.51;70.31;101967.72;5113896;28;20032;-68
2023/08/16 10:46:29;;;;;;;17.27;11.50;;;;;;;23.66;69.88;101974.53;5112824;28;20031;-66
2023/08/16 10:49:08;;;;;;;18.42;11.80;;;;;;;23.62;69.72;101965.97;5113949;28;20054;-67
2023/08/16 10:51:51;;;;;;;18.90;11.85;;;;;;;23.40;70.38;101961.84;5113960;28;20027;-66
2023/08/16 10:54:17;;;;;;;18.90;11.30;;;;;;;23.68;70.30;101964.50;5113913;28;20772;-66
2023/08/16 10:56:44;;;;;;;18.42;11.93;;;;;;;23.68;68.90;101970.13;5112344;28;20160;-66
2023/08/16 10:59:12;;;;;;;18.33;11.93;;;;;;;23.84;67.71;101970.09;5113531;28;20127;-66
2023/08/16 11:01:45;;;;;;;18.27;11.85;;;;;;;24.02;68.55;101964.00;5113823;28;20031;-66
2023/08/16 11:04:10;;;;;;;18.65;11.63;;;;;;;23.99;67.99;101954.28;5113823;28;20031;-66